sensor_id;sensor_type;location;lat;lon;timestamp;P1;durP1;ratioP1;P2;durP2;ratioP2
81672;SDS011;71092;41.158;-8.680;2023-08-06T00:01:36;14.77;;;6.30;;
81672;SDS011;71092;41.158;-8.680;2023-08-06T00:04:02;14.68;;;6.63;;
81672;SDS011;71092;41.158;-8.680;2023-08-06T00:06:28;12.30;;;5.30;;
81672;SDS011;71092;41.158;-8.680;2023-08-06T00:08:54;14.27;;;5.88;;
81672;SDS011;71092;41.158;-8.680;2023-08-06T00:11:20;17.88;;;5.72;;
81672;SDS011;71092;41.158;-8.680;2023-08-06T00:13:46;14.50;;;5.68;;
81672;SDS011;71092;41.158;-8.680;2023-08-06T00:16:13;12.50;;;5.93;;
81672;SDS011;71092;41.158;-8.680;2023-08-06T00:18:39;17.70;;;5.80;;
81672;SDS011;71092;41.158;-8.680;2023-08-06T00:21:05;15.30;;;5.75;;
81672;SDS011;71092;41.158;-8.680;2023-08-06T00:23:31;14.73;;;5.50;;
81672;SDS011;71092;41.158;-8.680;2023-08-06T00:25:57;16.42;;;6.28;;
81672;SDS011;71092;41.158;-8.680;2023-08-06T00:28:23;14.32;;;5.45;;
81672;SDS011;71092;41.158;-8.680;2023-08-06T00:30:55;15.18;;;5.85;;
81672;SDS011;71092;41.158;-8.680;2023-08-06T00:33:21;16.83;;;5.45;;
81672;SDS011;71092;41.158;-8.680;2023-08-06T00:35:48;12.88;;;5.72;;
81672;SDS011;71092;41.158;-8.680;2023-08-06T00:38:13;14.80;;;5.93;;
81672;SDS011;71092;41.158;-8.680;2023-08-06T00:40:39;14.68;;;5.60;;
81672;SDS011;71092;41.158;-8.680;2023-08-06T00:43:06;11.00;;;5.22;;
81672;SDS011;71092;41.158;-8.680;2023-08-06T00:45:33;15.57;;;6.07;;
81672;SDS011;71092;41.158;-8.680;2023-08-06T00:48:04;15.05;;;6.47;;
81672;SDS011;71092;41.158;-8.680;2023-08-06T00:50:32;15.65;;;5.80;;
81672;SDS011;71092;41.158;-8.680;2023-08-06T00:52:58;16.77;;;6.07;;
81672;SDS011;71092;41.158;-8.680;2023-08-06T00:55:24;15.77;;;6.45;;
81672;SDS011;71092;41.158;-8.680;2023-08-06T00:57:51;15.63;;;6.30;;
81672;SDS011;71092;41.158;-8.680;2023-08-06T01:00:18;15.10;;;5.35;;
81672;SDS011;71092;41.158;-8.680;2023-08-06T01:02:45;13.13;;;5.65;;
81672;SDS011;71092;41.158;-8.680;2023-08-06T01:05:11;12.18;;;5.75;;
81672;SDS011;71092;41.158;-8.680;2023-08-06T01:07:46;13.60;;;5.70;;
81672;SDS011;71092;41.158;-8.680;2023-08-06T01:13:21;15.57;;;6.80;;
81672;SDS011;71092;41.158;-8.680;2023-08-06T01:15:54;16.02;;;5.63;;
81672;SDS011;71092;41.158;-8.680;2023-08-06T01:18:25;14.25;;;6.20;;
81672;SDS011;71092;41.158;-8.680;2023-08-06T01:20:51;18.58;;;6.47;;
81672;SDS011;71092;41.158;-8.680;2023-08-06T01:23:17;14.77;;;5.85;;
81672;SDS011;71092;41.158;-8.680;2023-08-06T01:26:05;14.35;;;5.85;;
81672;SDS011;71092;41.158;-8.680;2023-08-06T01:29:06;16.60;;;6.20;;
81672;SDS011;71092;41.158;-8.680;2023-08-06T01:31:39;23.20;;;6.70;;
81672;SDS011;71092;41.158;-8.680;2023-08-06T01:34:09;13.77;;;5.53;;
81672;SDS011;71092;41.158;-8.680;2023-08-06T01:36:39;16.90;;;6.07;;
81672;SDS011;71092;41.158;-8.680;2023-08-06T01:39:05;14.20;;;6.15;;
81672;SDS011;71092;41.158;-8.680;2023-08-06T01:41:31;16.48;;;5.88;;
81672;SDS011;71092;41.158;-8.680;2023-08-06T01:43:57;18.48;;;6.53;;
81672;SDS011;71092;41.158;-8.680;2023-08-06T01:46:23;12.98;;;5.88;;
81672;SDS011;71092;41.158;-8.680;2023-08-06T01:48:50;15.63;;;6.65;;
81672;SDS011;71092;41.158;-8.680;2023-08-06T01:51:16;14.57;;;5.93;;
81672;SDS011;71092;41.158;-8.680;2023-08-06T01:53:43;17.08;;;6.80;;
81672;SDS011;71092;41.158;-8.680;2023-08-06T01:56:09;14.88;;;5.90;;
81672;SDS011;71092;41.158;-8.680;2023-08-06T01:58:35;17.50;;;6.63;;
81672;SDS011;71092;41.158;-8.680;2023-08-06T02:01:01;14.52;;;6.18;;
81672;SDS011;71092;41.158;-8.680;2023-08-06T02:03:27;15.52;;;6.28;;
81672;SDS011;71092;41.158;-8.680;2023-08-06T02:05:53;15.55;;;6.25;;
81672;SDS011;71092;41.158;-8.680;2023-08-06T02:08:19;14.32;;;5.07;;
81672;SDS011;71092;41.158;-8.680;2023-08-06T02:10:46;15.00;;;6.30;;
81672;SDS011;71092;41.158;-8.680;2023-08-06T02:13:12;16.50;;;5.97;;
81672;SDS011;71092;41.158;-8.680;2023-08-06T02:15:44;17.05;;;6.63;;
81672;SDS011;71092;41.158;-8.680;2023-08-06T02:18:13;14.73;;;5.57;;
81672;SDS011;71092;41.158;-8.680;2023-08-06T02:20:41;16.13;;;6.03;;
81672;SDS011;71092;41.158;-8.680;2023-08-06T02:23:07;20.20;;;5.97;;
81672;SDS011;71092;41.158;-8.680;2023-08-06T02:25:34;15.32;;;5.95;;
81672;SDS011;71092;41.158;-8.680;2023-08-06T02:28:00;14.63;;;6.45;;
81672;SDS011;71092;41.158;-8.680;2023-08-06T02:30:26;11.85;;;5.50;;
81672;SDS011;71092;41.158;-8.680;2023-08-06T02:32:52;13.57;;;5.75;;
81672;SDS011;71092;41.158;-8.680;2023-08-06T02:35:18;14.18;;;5.68;;
81672;SDS011;71092;41.158;-8.680;2023-08-06T02:37:45;14.80;;;6.45;;
81672;SDS011;71092;41.158;-8.680;2023-08-06T02:40:11;14.32;;;5.80;;
81672;SDS011;71092;41.158;-8.680;2023-08-06T02:42:37;16.63;;;6.65;;
81672;SDS011;71092;41.158;-8.680;2023-08-06T02:45:03;13.82;;;5.88;;
81672;SDS011;71092;41.158;-8.680;2023-08-06T02:47:29;13.63;;;6.40;;
81672;SDS011;71092;41.158;-8.680;2023-08-06T02:49:57;15.40;;;5.72;;
81672;SDS011;71092;41.158;-8.680;2023-08-06T02:52:23;13.45;;;5.45;;
81672;SDS011;71092;41.158;-8.680;2023-08-06T02:54:49;14.25;;;5.45;;
81672;SDS011;71092;41.158;-8.680;2023-08-06T02:57:15;15.07;;;5.97;;
81672;SDS011;71092;41.158;-8.680;2023-08-06T02:59:42;17.05;;;6.57;;
81672;SDS011;71092;41.158;-8.680;2023-08-06T03:02:20;14.68;;;5.90;;
81672;SDS011;71092;41.158;-8.680;2023-08-06T03:05:11;15.55;;;6.05;;
81672;SDS011;71092;41.158;-8.680;2023-08-06T03:07:41;15.75;;;5.55;;
81672;SDS011;71092;41.158;-8.680;2023-08-06T03:10:19;14.80;;;6.15;;
81672;SDS011;71092;41.158;-8.680;2023-08-06T03:12:47;16.60;;;5.88;;
81672;SDS011;71092;41.158;-8.680;2023-08-06T03:15:12;13.32;;;6.28;;
81672;SDS011;71092;41.158;-8.680;2023-08-06T03:17:40;15.63;;;6.47;;
81672;SDS011;71092;41.158;-8.680;2023-08-06T03:20:08;12.13;;;5.53;;
81672;SDS011;71092;41.158;-8.680;2023-08-06T03:22:35;13.32;;;5.97;;
81672;SDS011;71092;41.158;-8.680;2023-08-06T03:25:02;14.15;;;6.43;;
81672;SDS011;71092;41.158;-8.680;2023-08-06T03:27:29;11.35;;;5.32;;
81672;SDS011;71092;41.158;-8.680;2023-08-06T03:29:55;11.07;;;5.53;;
81672;SDS011;71092;41.158;-8.680;2023-08-06T03:32:24;17.20;;;6.63;;
81672;SDS011;71092;41.158;-8.680;2023-08-06T03:34:51;13.85;;;5.40;;
81672;SDS011;71092;41.158;-8.680;2023-08-06T03:37:19;15.23;;;5.80;;
81672;SDS011;71092;41.158;-8.680;2023-08-06T03:39:44;15.98;;;5.78;;
81672;SDS011;71092;41.158;-8.680;2023-08-06T03:42:10;11.43;;;5.65;;
81672;SDS011;71092;41.158;-8.680;2023-08-06T03:44:37;14.75;;;5.70;;
81672;SDS011;71092;41.158;-8.680;2023-08-06T03:47:03;16.88;;;6.13;;
81672;SDS011;71092;41.158;-8.680;2023-08-06T03:49:29;18.35;;;6.28;;
81672;SDS011;71092;41.158;-8.680;2023-08-06T03:51:55;15.02;;;5.93;;
81672;SDS011;71092;41.158;-8.680;2023-08-06T03:54:21;15.52;;;6.53;;
81672;SDS011;71092;41.158;-8.680;2023-08-06T03:56:47;15.85;;;5.22;;
81672;SDS011;71092;41.158;-8.680;2023-08-06T03:59:13;14.82;;;5.63;;
81672;SDS011;71092;41.158;-8.680;2023-08-06T04:01:39;13.45;;;5.15;;
81672;SDS011;71092;41.158;-8.680;2023-08-06T04:04:05;14.50;;;6.25;;
81672;SDS011;71092;41.158;-8.680;2023-08-06T04:06:31;12.73;;;4.90;;
81672;SDS011;71092;41.158;-8.680;2023-08-06T04:08:57;11.30;;;5.70;;
81672;SDS011;71092;41.158;-8.680;2023-08-06T04:11:23;13.25;;;5.13;;
81672;SDS011;71092;41.158;-8.680;2023-08-06T04:13:49;14.02;;;5.53;;
81672;SDS011;71092;41.158;-8.680;2023-08-06T04:16:16;12.77;;;5.35;;
81672;SDS011;71092;41.158;-8.680;2023-08-06T04:18:42;12.55;;;5.47;;
81672;SDS011;71092;41.158;-8.680;2023-08-06T04:21:08;16.90;;;6.30;;
81672;SDS011;71092;41.158;-8.680;2023-08-06T04:23:34;11.23;;;5.32;;
81672;SDS011;71092;41.158;-8.680;2023-08-06T04:26:03;13.43;;;5.55;;
81672;SDS011;71092;41.158;-8.680;2023-08-06T04:28:32;13.23;;;5.00;;
81672;SDS011;71092;41.158;-8.680;2023-08-06T04:30:59;12.45;;;4.97;;
81672;SDS011;71092;41.158;-8.680;2023-08-06T04:33:25;13.32;;;5.00;;
81672;SDS011;71092;41.158;-8.680;2023-08-06T04:35:54;12.10;;;5.60;;
81672;SDS011;71092;41.158;-8.680;2023-08-06T04:38:25;13.75;;;5.32;;
81672;SDS011;71092;41.158;-8.680;2023-08-06T04:40:53;11.77;;;5.53;;
81672;SDS011;71092;41.158;-8.680;2023-08-06T04:43:20;12.65;;;5.35;;
81672;SDS011;71092;41.158;-8.680;2023-08-06T04:45:49;14.05;;;5.50;;
81672;SDS011;71092;41.158;-8.680;2023-08-06T04:48:16;13.90;;;5.65;;
81672;SDS011;71092;41.158;-8.680;2023-08-06T04:50:43;14.57;;;5.43;;
81672;SDS011;71092;41.158;-8.680;2023-08-06T04:53:13;13.15;;;5.05;;
81672;SDS011;71092;41.158;-8.680;2023-08-06T04:55:39;11.85;;;6.05;;
81672;SDS011;71092;41.158;-8.680;2023-08-06T04:58:05;13.68;;;5.95;;
81672;SDS011;71092;41.158;-8.680;2023-08-06T05:00:31;14.98;;;5.78;;
81672;SDS011;71092;41.158;-8.680;2023-08-06T05:02:59;13.13;;;5.13;;
81672;SDS011;71092;41.158;-8.680;2023-08-06T05:05:25;18.25;;;5.80;;
81672;SDS011;71092;41.158;-8.680;2023-08-06T05:07:50;11.48;;;5.20;;
81672;SDS011;71092;41.158;-8.680;2023-08-06T05:10:16;12.23;;;5.68;;
81672;SDS011;71092;41.158;-8.680;2023-08-06T05:12:42;13.55;;;5.40;;
81672;SDS011;71092;41.158;-8.680;2023-08-06T05:15:08;11.30;;;5.15;;
81672;SDS011;71092;41.158;-8.680;2023-08-06T05:17:34;11.43;;;5.65;;
81672;SDS011;71092;41.158;-8.680;2023-08-06T05:20:00;11.05;;;5.28;;
81672;SDS011;71092;41.158;-8.680;2023-08-06T05:22:26;11.73;;;5.00;;
81672;SDS011;71092;41.158;-8.680;2023-08-06T05:24:53;16.08;;;5.78;;
81672;SDS011;71092;41.158;-8.680;2023-08-06T05:27:19;12.50;;;5.35;;
81672;SDS011;71092;41.158;-8.680;2023-08-06T05:29:45;10.77;;;4.97;;
81672;SDS011;71092;41.158;-8.680;2023-08-06T05:32:11;11.07;;;5.22;;
81672;SDS011;71092;41.158;-8.680;2023-08-06T05:34:37;11.25;;;5.18;;
81672;SDS011;71092;41.158;-8.680;2023-08-06T05:37:03;13.93;;;5.60;;
81672;SDS011;71092;41.158;-8.680;2023-08-06T05:39:29;10.77;;;5.57;;
81672;SDS011;71092;41.158;-8.680;2023-08-06T05:41:55;15.77;;;4.72;;
81672;SDS011;71092;41.158;-8.680;2023-08-06T05:44:22;9.27;;;4.68;;
81672;SDS011;71092;41.158;-8.680;2023-08-06T05:46:48;11.80;;;5.78;;
81672;SDS011;71092;41.158;-8.680;2023-08-06T05:49:15;12.60;;;5.32;;
81672;SDS011;71092;41.158;-8.680;2023-08-06T05:51:41;13.10;;;5.03;;
81672;SDS011;71092;41.158;-8.680;2023-08-06T05:54:07;10.57;;;4.70;;
81672;SDS011;71092;41.158;-8.680;2023-08-06T05:56:33;13.23;;;5.90;;
81672;SDS011;71092;41.158;-8.680;2023-08-06T05:58:59;13.15;;;4.90;;
81672;SDS011;71092;41.158;-8.680;2023-08-06T06:01:25;10.13;;;5.15;;
81672;SDS011;71092;41.158;-8.680;2023-08-06T06:03:51;11.52;;;4.70;;
81672;SDS011;71092;41.158;-8.680;2023-08-06T06:06:17;11.65;;;4.80;;
81672;SDS011;71092;41.158;-8.680;2023-08-06T06:08:44;12.30;;;4.90;;
81672;SDS011;71092;41.158;-8.680;2023-08-06T06:11:10;9.88;;;5.22;;
81672;SDS011;71092;41.158;-8.680;2023-08-06T06:13:36;10.15;;;4.85;;
81672;SDS011;71092;41.158;-8.680;2023-08-06T06:16:02;10.82;;;5.30;;
81672;SDS011;71092;41.158;-8.680;2023-08-06T06:18:28;12.77;;;3.72;;
81672;SDS011;71092;41.158;-8.680;2023-08-06T06:20:53;7.70;;;3.95;;
81672;SDS011;71092;41.158;-8.680;2023-08-06T06:23:19;8.45;;;3.90;;
81672;SDS011;71092;41.158;-8.680;2023-08-06T06:25:49;9.52;;;4.38;;
81672;SDS011;71092;41.158;-8.680;2023-08-06T06:28:19;9.57;;;4.28;;
81672;SDS011;71092;41.158;-8.680;2023-08-06T06:30:45;10.57;;;4.35;;
81672;SDS011;71092;41.158;-8.680;2023-08-06T06:33:11;6.63;;;3.72;;
81672;SDS011;71092;41.158;-8.680;2023-08-06T06:35:37;7.15;;;3.88;;
81672;SDS011;71092;41.158;-8.680;2023-08-06T06:38:03;8.23;;;3.65;;
81672;SDS011;71092;41.158;-8.680;2023-08-06T06:40:29;12.52;;;4.13;;
81672;SDS011;71092;41.158;-8.680;2023-08-06T06:42:55;8.05;;;3.55;;
81672;SDS011;71092;41.158;-8.680;2023-08-06T06:45:20;8.70;;;4.00;;
81672;SDS011;71092;41.158;-8.680;2023-08-06T06:47:46;5.97;;;3.50;;
81672;SDS011;71092;41.158;-8.680;2023-08-06T06:50:12;8.32;;;3.50;;
81672;SDS011;71092;41.158;-8.680;2023-08-06T06:52:39;6.72;;;3.10;;
81672;SDS011;71092;41.158;-8.680;2023-08-06T06:55:05;9.82;;;3.83;;
81672;SDS011;71092;41.158;-8.680;2023-08-06T06:57:31;14.02;;;4.50;;
81672;SDS011;71092;41.158;-8.680;2023-08-06T06:59:56;18.05;;;5.32;;
81672;SDS011;71092;41.158;-8.680;2023-08-06T07:02:22;16.95;;;5.05;;
81672;SDS011;71092;41.158;-8.680;2023-08-06T07:04:49;18.27;;;5.30;;
81672;SDS011;71092;41.158;-8.680;2023-08-06T07:07:15;17.30;;;5.85;;
81672;SDS011;71092;41.158;-8.680;2023-08-06T07:09:41;21.85;;;5.85;;
81672;SDS011;71092;41.158;-8.680;2023-08-06T07:12:07;18.20;;;5.38;;
81672;SDS011;71092;41.158;-8.680;2023-08-06T07:14:33;19.02;;;5.50;;
81672;SDS011;71092;41.158;-8.680;2023-08-06T07:16:59;18.65;;;5.60;;
81672;SDS011;71092;41.158;-8.680;2023-08-06T07:19:25;21.63;;;6.40;;
81672;SDS011;71092;41.158;-8.680;2023-08-06T07:21:51;15.48;;;5.05;;
81672;SDS011;71092;41.158;-8.680;2023-08-06T07:24:16;13.05;;;4.35;;
81672;SDS011;71092;41.158;-8.680;2023-08-06T07:26:43;14.95;;;4.30;;
81672;SDS011;71092;41.158;-8.680;2023-08-06T07:29:08;16.23;;;5.30;;
81672;SDS011;71092;41.158;-8.680;2023-08-06T07:31:34;15.23;;;4.60;;
81672;SDS011;71092;41.158;-8.680;2023-08-06T07:34:00;15.13;;;4.90;;
81672;SDS011;71092;41.158;-8.680;2023-08-06T07:36:26;14.95;;;4.22;;
81672;SDS011;71092;41.158;-8.680;2023-08-06T07:38:52;14.60;;;5.38;;
81672;SDS011;71092;41.158;-8.680;2023-08-06T07:41:22;14.63;;;4.72;;
81672;SDS011;71092;41.158;-8.680;2023-08-06T07:43:48;21.75;;;5.57;;
81672;SDS011;71092;41.158;-8.680;2023-08-06T07:46:15;12.98;;;4.60;;
81672;SDS011;71092;41.158;-8.680;2023-08-06T07:48:40;13.18;;;4.90;;
81672;SDS011;71092;41.158;-8.680;2023-08-06T07:51:06;28.70;;;7.57;;
81672;SDS011;71092;41.158;-8.680;2023-08-06T07:53:32;18.08;;;5.40;;
81672;SDS011;71092;41.158;-8.680;2023-08-06T07:55:58;34.90;;;7.07;;
81672;SDS011;71092;41.158;-8.680;2023-08-06T07:58:27;29.67;;;7.15;;
81672;SDS011;71092;41.158;-8.680;2023-08-06T08:00:54;27.13;;;6.93;;
81672;SDS011;71092;41.158;-8.680;2023-08-06T08:03:20;39.05;;;8.07;;
81672;SDS011;71092;41.158;-8.680;2023-08-06T08:05:46;21.83;;;5.68;;
81672;SDS011;71092;41.158;-8.680;2023-08-06T08:08:12;12.40;;;5.60;;
81672;SDS011;71092;41.158;-8.680;2023-08-06T08:10:38;16.23;;;5.65;;
81672;SDS011;71092;41.158;-8.680;2023-08-06T08:13:04;12.55;;;4.60;;
81672;SDS011;71092;41.158;-8.680;2023-08-06T08:15:31;10.73;;;5.05;;
81672;SDS011;71092;41.158;-8.680;2023-08-06T08:17:57;12.57;;;4.00;;
81672;SDS011;71092;41.158;-8.680;2023-08-06T08:20:24;14.65;;;4.45;;
81672;SDS011;71092;41.158;-8.680;2023-08-06T08:22:50;11.88;;;4.75;;
81672;SDS011;71092;41.158;-8.680;2023-08-06T08:25:16;12.82;;;4.97;;
81672;SDS011;71092;41.158;-8.680;2023-08-06T08:27:42;10.38;;;4.78;;
81672;SDS011;71092;41.158;-8.680;2023-08-06T08:30:08;12.68;;;5.18;;
81672;SDS011;71092;41.158;-8.680;2023-08-06T08:32:34;10.68;;;4.47;;
81672;SDS011;71092;41.158;-8.680;2023-08-06T08:35:00;9.15;;;4.40;;
81672;SDS011;71092;41.158;-8.680;2023-08-06T08:37:26;12.20;;;4.45;;
81672;SDS011;71092;41.158;-8.680;2023-08-06T08:39:52;8.55;;;3.58;;
81672;SDS011;71092;41.158;-8.680;2023-08-06T08:42:18;8.50;;;3.78;;
81672;SDS011;71092;41.158;-8.680;2023-08-06T08:44:44;10.50;;;4.05;;
81672;SDS011;71092;41.158;-8.680;2023-08-06T08:47:10;5.80;;;2.97;;
81672;SDS011;71092;41.158;-8.680;2023-08-06T08:49:37;7.80;;;3.00;;
81672;SDS011;71092;41.158;-8.680;2023-08-06T08:52:03;10.18;;;3.92;;
81672;SDS011;71092;41.158;-8.680;2023-08-06T08:54:33;25.88;;;5.45;;
81672;SDS011;71092;41.158;-8.680;2023-08-06T08:56:59;22.67;;;3.85;;
81672;SDS011;71092;41.158;-8.680;2023-08-06T08:59:26;25.23;;;4.32;;
81672;SDS011;71092;41.158;-8.680;2023-08-06T09:01:52;21.55;;;4.65;;
81672;SDS011;71092;41.158;-8.680;2023-08-06T09:04:20;18.70;;;5.40;;
81672;SDS011;71092;41.158;-8.680;2023-08-06T09:06:46;18.52;;;3.38;;
81672;SDS011;71092;41.158;-8.680;2023-08-06T09:09:13;9.30;;;3.65;;
81672;SDS011;71092;41.158;-8.680;2023-08-06T09:11:43;12.57;;;4.03;;
81672;SDS011;71092;41.158;-8.680;2023-08-06T09:14:10;16.98;;;4.53;;
81672;SDS011;71092;41.158;-8.680;2023-08-06T09:16:36;12.75;;;4.45;;
81672;SDS011;71092;41.158;-8.680;2023-08-06T09:19:07;10.38;;;4.10;;
81672;SDS011;71092;41.158;-8.680;2023-08-06T09:21:36;9.15;;;3.90;;
81672;SDS011;71092;41.158;-8.680;2023-08-06T09:24:07;11.77;;;3.97;;
81672;SDS011;71092;41.158;-8.680;2023-08-06T09:26:36;9.35;;;3.70;;
81672;SDS011;71092;41.158;-8.680;2023-08-06T09:29:07;16.73;;;4.45;;
81672;SDS011;71092;41.158;-8.680;2023-08-06T09:31:41;14.75;;;5.28;;
81672;SDS011;71092;41.158;-8.680;2023-08-06T09:34:20;11.43;;;4.63;;
81672;SDS011;71092;41.158;-8.680;2023-08-06T09:36:48;16.20;;;5.07;;
81672;SDS011;71092;41.158;-8.680;2023-08-06T09:39:19;10.93;;;4.70;;
81672;SDS011;71092;41.158;-8.680;2023-08-06T09:41:47;13.70;;;5.10;;
81672;SDS011;71092;41.158;-8.680;2023-08-06T09:44:17;11.27;;;5.47;;
81672;SDS011;71092;41.158;-8.680;2023-08-06T09:46:59;19.42;;;4.47;;
81672;SDS011;71092;41.158;-8.680;2023-08-06T09:49:47;9.80;;;4.88;;
81672;SDS011;71092;41.158;-8.680;2023-08-06T09:52:12;12.73;;;4.65;;
81672;SDS011;71092;41.158;-8.680;2023-08-06T09:54:39;18.80;;;5.28;;
81672;SDS011;71092;41.158;-8.680;2023-08-06T09:57:05;16.67;;;5.45;;
81672;SDS011;71092;41.158;-8.680;2023-08-06T09:59:32;12.23;;;4.28;;
81672;SDS011;71092;41.158;-8.680;2023-08-06T10:01:58;10.45;;;4.18;;
81672;SDS011;71092;41.158;-8.680;2023-08-06T10:04:24;15.73;;;4.90;;
81672;SDS011;71092;41.158;-8.680;2023-08-06T10:06:50;10.57;;;4.82;;
81672;SDS011;71092;41.158;-8.680;2023-08-06T10:09:16;14.15;;;6.50;;
81672;SDS011;71092;41.158;-8.680;2023-08-06T10:11:44;38.97;;;22.00;;
81672;SDS011;71092;41.158;-8.680;2023-08-06T10:14:28;62.75;;;34.60;;
81672;SDS011;71092;41.158;-8.680;2023-08-06T10:16:57;61.38;;;32.58;;
81672;SDS011;71092;41.158;-8.680;2023-08-06T10:19:23;74.72;;;41.28;;
81672;SDS011;71092;41.158;-8.680;2023-08-06T10:22:08;100.68;;;66.95;;
81672;SDS011;71092;41.158;-8.680;2023-08-06T10:24:47;120.07;;;73.18;;
81672;SDS011;71092;41.158;-8.680;2023-08-06T10:27:30;131.30;;;85.32;;
81672;SDS011;71092;41.158;-8.680;2023-08-06T10:33:02;400.98;;;294.85;;
81672;SDS011;71092;41.158;-8.680;2023-08-06T10:35:41;199.38;;;132.48;;
81672;SDS011;71092;41.158;-8.680;2023-08-06T10:38:18;112.70;;;76.47;;
81672;SDS011;71092;41.158;-8.680;2023-08-06T10:43:28;73.18;;;42.30;;
81672;SDS011;71092;41.158;-8.680;2023-08-06T10:46:03;62.28;;;31.40;;
81672;SDS011;71092;41.158;-8.680;2023-08-06T10:48:36;77.18;;;45.00;;
81672;SDS011;71092;41.158;-8.680;2023-08-06T10:51:10;83.38;;;49.50;;
81672;SDS011;71092;41.158;-8.680;2023-08-06T10:53:46;47.92;;;22.25;;
81672;SDS011;71092;41.158;-8.680;2023-08-06T10:58:40;29.42;;;12.90;;
81672;SDS011;71092;41.158;-8.680;2023-08-06T11:01:07;23.45;;;8.57;;
81672;SDS011;71092;41.158;-8.680;2023-08-06T11:03:33;41.47;;;20.30;;
81672;SDS011;71092;41.158;-8.680;2023-08-06T11:05:59;36.25;;;18.08;;
81672;SDS011;71092;41.158;-8.680;2023-08-06T11:08:26;43.47;;;21.95;;
81672;SDS011;71092;41.158;-8.680;2023-08-06T11:10:52;33.13;;;16.38;;
81672;SDS011;71092;41.158;-8.680;2023-08-06T11:13:18;27.08;;;10.90;;
81672;SDS011;71092;41.158;-8.680;2023-08-06T11:15:45;28.02;;;12.50;;
81672;SDS011;71092;41.158;-8.680;2023-08-06T11:18:11;26.80;;;12.38;;
81672;SDS011;71092;41.158;-8.680;2023-08-06T11:20:37;34.92;;;14.05;;
81672;SDS011;71092;41.158;-8.680;2023-08-06T11:23:04;32.05;;;14.82;;
81672;SDS011;71092;41.158;-8.680;2023-08-06T11:25:31;33.72;;;16.00;;
81672;SDS011;71092;41.158;-8.680;2023-08-06T11:28:00;30.40;;;16.20;;
81672;SDS011;71092;41.158;-8.680;2023-08-06T11:30:27;39.22;;;17.27;;
81672;SDS011;71092;41.158;-8.680;2023-08-06T11:32:53;33.03;;;19.15;;
81672;SDS011;71092;41.158;-8.680;2023-08-06T11:35:19;38.80;;;21.02;;
81672;SDS011;71092;41.158;-8.680;2023-08-06T11:37:45;31.65;;;20.40;;
81672;SDS011;71092;41.158;-8.680;2023-08-06T11:40:11;33.58;;;18.38;;
81672;SDS011;71092;41.158;-8.680;2023-08-06T11:42:38;37.75;;;18.38;;
81672;SDS011;71092;41.158;-8.680;2023-08-06T11:45:04;35.53;;;20.40;;
81672;SDS011;71092;41.158;-8.680;2023-08-06T11:47:30;39.25;;;19.55;;
81672;SDS011;71092;41.158;-8.680;2023-08-06T11:49:56;35.83;;;18.65;;
81672;SDS011;71092;41.158;-8.680;2023-08-06T11:52:23;34.20;;;18.10;;
81672;SDS011;71092;41.158;-8.680;2023-08-06T11:55:08;31.35;;;18.42;;
81672;SDS011;71092;41.158;-8.680;2023-08-06T11:57:44;29.52;;;15.43;;
81672;SDS011;71092;41.158;-8.680;2023-08-06T12:00:12;31.42;;;18.90;;
81672;SDS011;71092;41.158;-8.680;2023-08-06T12:02:40;26.15;;;15.27;;
81672;SDS011;71092;41.158;-8.680;2023-08-06T12:07:40;27.88;;;14.02;;
81672;SDS011;71092;41.158;-8.680;2023-08-06T12:10:10;27.65;;;14.13;;
81672;SDS011;71092;41.158;-8.680;2023-08-06T12:12:37;25.95;;;13.80;;
81672;SDS011;71092;41.158;-8.680;2023-08-06T12:15:04;26.33;;;13.15;;
81672;SDS011;71092;41.158;-8.680;2023-08-06T12:17:32;21.48;;;12.23;;
81672;SDS011;71092;41.158;-8.680;2023-08-06T12:19:58;20.88;;;11.88;;
81672;SDS011;71092;41.158;-8.680;2023-08-06T12:22:24;24.42;;;12.02;;
81672;SDS011;71092;41.158;-8.680;2023-08-06T12:24:50;21.58;;;11.85;;
81672;SDS011;71092;41.158;-8.680;2023-08-06T12:27:16;24.83;;;10.77;;
81672;SDS011;71092;41.158;-8.680;2023-08-06T12:29:43;22.38;;;10.95;;
81672;SDS011;71092;41.158;-8.680;2023-08-06T12:32:11;20.38;;;10.73;;
81672;SDS011;71092;41.158;-8.680;2023-08-06T12:34:41;21.00;;;10.32;;
81672;SDS011;71092;41.158;-8.680;2023-08-06T12:37:08;20.65;;;9.95;;
81672;SDS011;71092;41.158;-8.680;2023-08-06T12:39:37;20.67;;;9.57;;
81672;SDS011;71092;41.158;-8.680;2023-08-06T12:42:04;22.73;;;9.60;;
81672;SDS011;71092;41.158;-8.680;2023-08-06T12:44:31;18.90;;;8.88;;
81672;SDS011;71092;41.158;-8.680;2023-08-06T12:46:58;16.35;;;8.68;;
81672;SDS011;71092;41.158;-8.680;2023-08-06T12:49:24;17.92;;;9.27;;
81672;SDS011;71092;41.158;-8.680;2023-08-06T12:51:52;19.05;;;9.25;;
81672;SDS011;71092;41.158;-8.680;2023-08-06T12:54:19;16.88;;;9.48;;
81672;SDS011;71092;41.158;-8.680;2023-08-06T12:56:45;19.48;;;9.82;;
81672;SDS011;71092;41.158;-8.680;2023-08-06T12:59:15;19.58;;;9.95;;
81672;SDS011;71092;41.158;-8.680;2023-08-06T13:01:42;21.60;;;10.32;;
81672;SDS011;71092;41.158;-8.680;2023-08-06T13:04:08;17.08;;;9.20;;
81672;SDS011;71092;41.158;-8.680;2023-08-06T13:06:35;21.63;;;9.13;;
81672;SDS011;71092;41.158;-8.680;2023-08-06T13:09:06;19.52;;;9.25;;
81672;SDS011;71092;41.158;-8.680;2023-08-06T13:11:34;16.95;;;9.75;;
81672;SDS011;71092;41.158;-8.680;2023-08-06T13:14:07;22.88;;;8.73;;
81672;SDS011;71092;41.158;-8.680;2023-08-06T13:16:35;18.23;;;8.27;;
81672;SDS011;71092;41.158;-8.680;2023-08-06T13:19:03;18.58;;;9.50;;
81672;SDS011;71092;41.158;-8.680;2023-08-06T13:21:33;17.30;;;8.27;;
81672;SDS011;71092;41.158;-8.680;2023-08-06T13:24:01;19.33;;;7.38;;
81672;SDS011;71092;41.158;-8.680;2023-08-06T13:26:30;22.52;;;8.40;;
81672;SDS011;71092;41.158;-8.680;2023-08-06T13:29:00;14.45;;;5.93;;
81672;SDS011;71092;41.158;-8.680;2023-08-06T13:31:27;20.20;;;4.80;;
81672;SDS011;71092;41.158;-8.680;2023-08-06T13:33:54;18.58;;;4.93;;
81672;SDS011;71092;41.158;-8.680;2023-08-06T13:36:21;14.93;;;4.25;;
81672;SDS011;71092;41.158;-8.680;2023-08-06T13:38:48;18.40;;;4.28;;
81672;SDS011;71092;41.158;-8.680;2023-08-06T13:41:14;14.02;;;3.58;;
81672;SDS011;71092;41.158;-8.680;2023-08-06T13:43:40;12.93;;;3.95;;
81672;SDS011;71092;41.158;-8.680;2023-08-06T13:46:06;13.57;;;3.58;;
81672;SDS011;71092;41.158;-8.680;2023-08-06T13:48:32;13.10;;;4.00;;
81672;SDS011;71092;41.158;-8.680;2023-08-06T13:50:58;12.88;;;4.07;;
81672;SDS011;71092;41.158;-8.680;2023-08-06T13:53:24;13.25;;;3.95;;
81672;SDS011;71092;41.158;-8.680;2023-08-06T13:55:55;12.50;;;4.00;;
81672;SDS011;71092;41.158;-8.680;2023-08-06T13:58:22;12.00;;;4.05;;
81672;SDS011;71092;41.158;-8.680;2023-08-06T14:00:49;13.82;;;4.55;;
81672;SDS011;71092;41.158;-8.680;2023-08-06T14:03:18;16.00;;;4.85;;
81672;SDS011;71092;41.158;-8.680;2023-08-06T14:05:44;14.32;;;4.53;;
81672;SDS011;71092;41.158;-8.680;2023-08-06T14:08:10;11.10;;;4.43;;
81672;SDS011;71092;41.158;-8.680;2023-08-06T14:10:36;14.85;;;4.22;;
81672;SDS011;71092;41.158;-8.680;2023-08-06T14:13:02;15.57;;;4.55;;
81672;SDS011;71092;41.158;-8.680;2023-08-06T14:15:28;10.57;;;3.60;;
81672;SDS011;71092;41.158;-8.680;2023-08-06T14:17:54;12.55;;;4.45;;
81672;SDS011;71092;41.158;-8.680;2023-08-06T14:20:20;14.60;;;4.55;;
81672;SDS011;71092;41.158;-8.680;2023-08-06T14:22:46;10.32;;;4.20;;
81672;SDS011;71092;41.158;-8.680;2023-08-06T14:25:12;9.25;;;3.72;;
81672;SDS011;71092;41.158;-8.680;2023-08-06T14:27:38;8.18;;;3.42;;
81672;SDS011;71092;41.158;-8.680;2023-08-06T14:30:05;10.77;;;3.70;;
81672;SDS011;71092;41.158;-8.680;2023-08-06T14:32:32;16.55;;;3.85;;
81672;SDS011;71092;41.158;-8.680;2023-08-06T14:34:58;10.05;;;3.50;;
81672;SDS011;71092;41.158;-8.680;2023-08-06T14:37:24;14.18;;;3.75;;